Time;durP1;ratioP1;P1;durP2;ratioP2;P2;SDS_P1;SDS_P2;PMS_P1;PMS_P2;Temp;Humidity;BMP_temperature;BMP_pressure;BME280_temperature;BME280_humidity;BME280_pressure;Samples;Min_cycle;Max_cycle;Signal;HPM_P1;HPM_P2
2023/01/20 00:01:45;;;;;;;5.40;1.23;;;;;;;16.65;47.31;98367.09;5054479;28;20297;-69
2023/01/20 00:04:12;;;;;;;6.00;1.50;;;;;;;16.54;46.75;98360.09;5055670;28;20196;-70
2023/01/20 00:06:39;;;;;;;6.10;1.30;;;;;;;16.88;44.85;98380.06;5054838;28;20195;-69
2023/01/20 00:09:06;;;;;;;5.50;1.70;;;;;;;16.95;45.08;98402.09;5054884;28;20200;-69
2023/01/20 00:11:33;;;;;;;6.43;1.47;;;;;;;17.04;45.30;98392.44;5054986;28;20200;-69
2023/01/20 00:14:01;;;;;;;6.60;1.40;;;;;;;17.08;44.74;98374.75;5054623;28;20193;-69
2023/01/20 00:16:30;;;;;;;3.60;1.37;;;;;;;17.14;44.11;98346.84;5054621;28;20665;-70
2023/01/20 00:18:58;;;;;;;1.93;1.53;;;;;;;17.16;43.78;98350.09;5054933;28;20201;-70
2023/01/20 00:21:24;;;;;;;2.70;1.10;;;;;;;17.23;43.19;98370.22;5054486;28;20257;-72
2023/01/20 00:23:51;;;;;;;2.20;1.47;;;;;;;17.32;43.04;98391.97;5053798;28;20229;-71
2023/01/20 00:26:19;;;;;;;8.03;1.30;;;;;;;17.39;43.36;98425.53;5054784;28;20245;-73
2023/01/20 00:28:47;;;;;;;3.53;1.30;;;;;;;17.40;43.35;98421.81;5054782;28;20194;-69
2023/01/20 00:31:15;;;;;;;6.23;1.53;;;;;;;17.35;44.34;98423.66;5054695;28;20256;-69
2023/01/20 00:33:44;;;;;;;2.20;1.10;;;;;;;17.13;45.60;98417.69;5054273;28;20189;-68
2023/01/20 00:36:12;;;;;;;2.53;1.20;;;;;;;17.19;45.71;98390.59;5054624;28;20195;-71
2023/01/20 00:38:39;;;;;;;4.57;1.33;;;;;;;17.17;44.75;98405.34;5053710;28;20251;-69
2023/01/20 00:41:06;;;;;;;2.93;1.53;;;;;;;17.12;46.02;98349.81;5054070;28;20696;-69
2023/01/20 00:43:33;;;;;;;1.53;1.00;;;;;;;17.15;45.44;98372.63;5054013;28;20664;-69
2023/01/20 00:45:59;;;;;;;5.60;1.77;;;;;;;17.17;45.55;98395.44;5054131;28;20197;-71
2023/01/20 00:48:26;;;;;;;2.03;1.17;;;;;;;17.11;46.57;98393.78;5054323;28;20251;-69
2023/01/20 00:50:54;;;;;;;3.00;1.50;;;;;;;17.14;46.61;98379.03;5054046;28;20679;-70
2023/01/20 00:53:21;;;;;;;7.00;1.90;;;;;;;17.01;45.15;98401.00;5053858;28;20189;-71
2023/01/20 00:55:48;;;;;;;4.90;1.30;;;;;;;17.10;45.77;98392.19;5054325;28;20197;-70
2023/01/20 00:58:15;;;;;;;2.40;1.20;;;;;;;17.13;45.93;98401.59;5054215;28;20628;-70
2023/01/20 01:00:41;;;;;;;4.60;1.70;;;;;;;17.10;46.21;98443.19;5053277;28;20263;-71
2023/01/20 01:03:09;;;;;;;5.23;1.40;;;;;;;17.14;46.07;98440.75;5053654;28;20198;-71
2023/01/20 01:05:36;;;;;;;2.73;1.37;;;;;;;17.18;45.92;98428.44;5054028;28;20230;-71
2023/01/20 01:08:04;;;;;;;5.27;1.50;;;;;;;17.20;43.75;98431.69;5052863;28;20193;-71
2023/01/20 01:10:31;;;;;;;2.27;1.33;;;;;;;17.26;43.73;98468.19;5048675;28;20249;-71
2023/01/20 01:12:59;;;;;;;3.13;1.40;;;;;;;17.36;44.32;98489.69;5053453;28;20220;-71
2023/01/20 01:15:25;;;;;;;2.60;1.33;;;;;;;17.35;45.65;98504.19;5052773;28;20746;-71
2023/01/20 01:17:53;;;;;;;2.97;1.50;;;;;;;17.23;46.31;98498.25;5053708;28;20231;-71
2023/01/20 01:20:20;;;;;;;3.13;1.60;;;;;;;17.11;45.74;98517.22;5040382;28;20255;-71
2023/01/20 01:22:46;;;;;;;3.30;1.10;;;;;;;17.16;46.11;98522.66;5053233;28;20698;-71
2023/01/20 01:25:14;;;;;;;5.63;1.70;;;;;;;17.14;46.48;98507.84;5053949;28;20290;-70
2023/01/20 01:27:41;;;;;;;2.57;0.80;;;;;;;17.03;46.18;98496.25;5053609;28;20219;-70
2023/01/20 01:30:09;;;;;;;5.90;1.60;;;;;;;16.95;45.82;98487.94;5041825;28;20189;-71
2023/01/20 01:32:35;;;;;;;3.73;1.13;;;;;;;16.79;45.97;98494.28;5053127;28;20198;-68
2023/01/20 01:35:02;;;;;;;7.33;1.40;;;;;;;16.68;47.04;98516.72;5053401;28;20314;-69
2023/01/20 01:37:29;;;;;;;2.97;1.30;;;;;;;16.84;46.62;98531.84;5052723;28;20250;-69
2023/01/20 01:39:56;;;;;;;2.53;1.00;;;;;;;16.76;46.30;98537.69;5038955;28;20195;-70
2023/01/20 01:42:25;;;;;;;2.57;1.23;;;;;;;16.84;46.49;98539.91;5033343;28;20221;-70
2023/01/20 01:45:29;;;;;;;1.10;1.03;;;;;;;17.03;46.16;98515.03;5032749;28;20297;-70
2023/01/20 01:48:05;;;;;;;3.90;1.20;;;;;;;17.01;47.04;98489.53;5033535;28;20252;-69
2023/01/20 01:50:38;;;;;;;6.57;1.20;;;;;;;16.98;47.63;98469.41;5032971;28;20251;-69
2023/01/20 01:53:07;;;;;;;1.77;1.13;;;;;;;16.89;48.27;98483.59;5038046;28;20197;-70
2023/01/20 01:55:39;;;;;;;1.50;1.00;;;;;;;16.81;48.39;98497.50;5053010;28;20201;-70
2023/01/20 01:58:09;;;;;;;1.43;1.03;;;;;;;16.59;49.15;98484.25;5053226;28;20235;-71
2023/01/20 02:00:38;;;;;;;1.50;1.30;;;;;;;16.59;49.65;98472.69;5034065;28;20186;-70
2023/01/20 02:03:06;;;;;;;46.47;3.60;;;;;;;16.37;52.90;98474.69;5032608;28;20649;-70
2023/01/20 02:05:34;;;;;;;1.50;0.73;;;;;;;16.25;55.12;98464.13;5032949;28;20334;-70
2023/01/20 02:08:00;;;;;;;1.80;0.80;;;;;;;15.93;57.59;98481.28;5033024;28;20189;-71
2023/01/20 02:10:27;;;;;;;0.67;0.53;;;;;;;15.77;57.78;98491.06;5049029;28;20192;-71
2023/01/20 02:12:54;;;;;;;0.50;0.50;;;;;;;15.53;59.07;98482.50;5052982;28;20197;-70
2023/01/20 02:15:28;;;;;;;1.47;0.50;;;;;;;15.26;60.43;98488.88;5051959;28;20204;-71
2023/01/20 02:18:13;;;;;;;2.00;0.50;;;;;;;15.09;62.12;98493.47;5051704;28;20185;-72
2023/01/20 02:21:00;;;;;;;2.87;0.53;;;;;;;14.99;63.30;98488.81;5052570;28;20185;-71
2023/01/20 02:24:00;;;;;;;0.40;0.40;;;;;;;14.84;64.16;98479.78;5052190;28;20290;-73
2023/01/20 02:26:53;;;;;;;0.60;0.40;;;;;;;14.71;65.15;98475.59;5045587;28;20193;-73
2023/01/20 02:29:51;;;;;;;0.60;0.60;;;;;;;14.53;65.36;98470.53;5032563;28;20255;-71
2023/01/20 02:32:29;;;;;;;0.70;0.40;;;;;;;14.31;66.50;98482.25;5015512;28;20197;-72
2023/01/20 02:35:02;;;;;;;1.90;0.50;;;;;;;14.10;68.50;98473.06;5032155;28;20203;-72
2023/01/20 02:37:32;;;;;;;0.40;0.40;;;;;;;14.08;69.62;98475.16;5035907;28;20185;-72
2023/01/20 02:40:16;;;;;;;0.40;0.40;;;;;;;14.11;69.77;98501.41;5052219;28;20254;-72
2023/01/20 02:42:47;;;;;;;0.60;0.60;;;;;;;14.09;70.27;98490.13;5051946;28;20209;-72
2023/01/20 02:45:20;;;;;;;0.57;0.57;;;;;;;14.14;70.97;98478.75;5052371;28;20192;-74
2023/01/20 02:47:56;;;;;;;0.70;0.60;;;;;;;13.96;71.88;98485.13;5045868;28;20646;-72
2023/01/20 02:50:30;;;;;;;0.70;0.70;;;;;;;13.96;72.72;98501.13;5032282;28;20189;-72
2023/01/20 02:52:59;;;;;;;0.40;0.40;;;;;;;13.82;73.47;98481.16;5050653;28;20632;-73
2023/01/20 02:55:36;;;;;;;0.63;0.63;;;;;;;13.78;73.92;98456.00;5050287;28;20227;-73
2023/01/20 02:58:07;;;;;;;0.40;0.40;;;;;;;13.79;73.71;98462.94;5043676;28;20181;-73
2023/01/20 03:00:39;;;;;;;0.30;0.30;;;;;;;13.77;74.18;98485.59;5032197;28;20189;-73
2023/01/20 03:03:10;;;;;;;2.43;0.80;;;;;;;13.67;74.14;98470.22;5032351;28;20209;-72
2023/01/20 03:05:42;;;;;;;0.80;0.50;;;;;;;13.58;74.47;98500.19;5031806;28;20248;-73
2023/01/20 03:08:13;;;;;;;2.00;0.57;;;;;;;13.54;74.40;98521.19;5034379;28;20246;-73
2023/01/20 03:10:42;;;;;;;0.57;0.57;;;;;;;13.61;74.32;98519.22;5031995;28;20201;-73
2023/01/20 03:13:15;;;;;;;0.60;0.60;;;;;;;13.59;74.58;98494.59;5032131;28;20204;-73
2023/01/20 03:15:51;;;;;;;0.77;0.77;;;;;;;13.65;74.78;98523.03;5031976;28;20619;-73
2023/01/20 03:18:20;;;;;;;3.47;0.80;;;;;;;13.69;74.28;98531.34;5031165;28;20185;-73
2023/01/20 03:20:47;;;;;;;1.20;0.80;;;;;;;13.64;74.87;98484.03;5031459;28;20247;-73
2023/01/20 03:23:13;;;;;;;1.10;0.70;;;;;;;13.56;75.35;98464.94;5031940;28;20229;-73
2023/01/20 03:25:41;;;;;;;0.60;0.60;;;;;;;13.58;75.03;98478.84;5033181;28;20247;-73
2023/01/20 03:28:07;;;;;;;1.07;0.70;;;;;;;13.62;74.93;98507.47;5051353;28;20266;-74
2023/01/20 03:30:34;;;;;;;0.80;0.50;;;;;;;13.65;75.33;98515.03;5051615;28;20254;-74
2023/01/20 03:33:01;;;;;;;0.70;0.70;;;;;;;13.61;75.79;98500.53;5051777;28;20197;-74
2023/01/20 03:35:30;;;;;;;0.90;0.70;;;;;;;13.67;75.88;98488.06;5051322;28;20664;-74
2023/01/20 03:37:57;;;;;;;2.30;1.00;;;;;;;13.61;76.03;98510.38;5032049;28;20255;-74
2023/01/20 03:40:27;;;;;;;0.97;0.80;;;;;;;13.49;76.92;98491.78;5031436;28;20204;-74
2023/01/20 03:43:00;;;;;;;0.97;0.80;;;;;;;13.50;77.13;98479.22;5039154;28;20201;-74
2023/01/20 03:45:38;;;;;;;1.13;0.90;;;;;;;13.57;77.01;98478.03;5050575;28;20189;-74
2023/01/20 03:48:13;;;;;;;2.17;0.97;;;;;;;13.58;76.83;98485.00;5047458;28;20188;-73
2023/01/20 03:50:47;;;;;;;2.43;1.13;;;;;;;13.60;76.88;98484.75;5031368;28;20225;-72
2023/01/20 03:53:25;;;;;;;2.67;1.13;;;;;;;13.63;76.61;98465.56;5031533;28;20188;-72
2023/01/20 03:55:57;;;;;;;4.00;2.73;;;;;;;13.62;76.85;98453.28;5031723;28;20222;-73
2023/01/20 03:58:29;;;;;;;2.07;1.07;;;;;;;13.56;76.53;98465.72;5031684;28;20266;-73
2023/01/20 04:00:57;;;;;;;1.40;0.90;;;;;;;13.62;76.48;98459.44;5031860;28;20190;-74
2023/01/20 04:03:29;;;;;;;1.37;1.37;;;;;;;13.57;76.25;98461.22;5045263;28;20599;-75
2023/01/20 04:06:00;;;;;;;1.67;1.10;;;;;;;13.53;76.65;98458.22;5050054;28;20201;-75
2023/01/20 04:08:34;;;;;;;5.23;4.83;;;;;;;13.19;77.24;98448.50;5054732;28;20234;-75
2023/01/20 04:11:04;;;;;;;2.17;1.07;;;;;;;12.96;78.26;98464.56;5054707;28;20180;-75
2023/01/20 04:13:31;;;;;;;0.73;0.73;;;;;;;12.88;79.15;98469.44;5053479;28;20654;-74
2023/01/20 04:16:01;;;;;;;0.90;0.80;;;;;;;12.97;78.86;98479.53;5054972;28;20190;-74
2023/01/20 04:18:28;;;;;;;0.80;0.80;;;;;;;13.09;78.36;98498.97;5054997;28;20185;-76
2023/01/20 04:21:00;;;;;;;4.00;3.63;;;;;;;13.20;77.73;98468.00;5054340;28;20683;-75
2023/01/20 04:23:32;;;;;;;1.33;0.60;;;;;;;13.20;77.37;98450.16;5039771;28;20236;-75
2023/01/20 04:25:59;;;;;;;1.33;0.90;;;;;;;13.09;77.35;98427.00;5034935;28;20244;-75
2023/01/20 04:28:25;;;;;;;0.93;0.90;;;;;;;13.11;77.60;98438.22;5035057;28;20196;-75
2023/01/20 04:30:52;;;;;;;3.57;3.37;;;;;;;13.17;77.76;98413.28;5044812;28;20187;-75
2023/01/20 04:33:19;;;;;;;1.00;1.00;;;;;;;13.28;77.39;98412.41;5054569;28;20201;-75
2023/01/20 04:35:45;;;;;;;1.00;1.00;;;;;;;13.29;77.17;98416.72;5054741;28;20200;-75
2023/01/20 04:38:13;;;;;;;2.83;1.10;;;;;;;13.33;76.78;98417.84;5054541;28;20193;-75
2023/01/20 04:40:40;;;;;;;5.70;1.13;;;;;;;13.32;76.45;98410.88;5049035;28;20246;-76
2023/01/20 04:43:08;;;;;;;2.63;0.90;;;;;;;13.29;76.83;98399.88;5043594;28;20227;-76
2023/01/20 04:45:35;;;;;;;1.70;1.30;;;;;;;13.26;76.78;98422.50;5054539;28;20196;-76
2023/01/20 04:48:06;;;;;;;3.23;1.10;;;;;;;13.29;76.65;98434.56;5054004;28;20664;-75
2023/01/20 04:50:32;;;;;;;3.00;1.60;;;;;;;13.34;76.62;98439.97;5050834;28;20257;-75
2023/01/20 04:52:59;;;;;;;1.50;1.40;;;;;;;13.31;76.23;98438.59;5034033;28;20197;-74
2023/01/20 04:55:27;;;;;;;2.00;1.10;;;;;;;13.24;76.62;98407.81;5034242;28;20337;-74
2023/01/20 04:57:54;;;;;;;3.53;1.50;;;;;;;12.96;77.41;98389.13;5034274;28;20236;-75
2023/01/20 05:00:21;;;;;;;2.83;1.40;;;;;;;12.88;78.20;98384.16;5050815;28;20737;-73
2023/01/20 05:02:48;;;;;;;2.67;1.50;;;;;;;12.96;78.02;98383.78;5033668;28;20712;-74
2023/01/20 05:05:15;;;;;;;1.73;1.30;;;;;;;12.99;77.29;98365.47;5033947;28;20744;-73
2023/01/20 05:07:41;;;;;;;1.80;1.70;;;;;;;13.08;77.02;98360.59;5033777;28;20657;-73
2023/01/20 05:10:09;;;;;;;2.13;1.60;;;;;;;13.14;76.48;98364.94;5033692;28;20264;-73
2023/01/20 05:12:37;;;;;;;10.97;2.27;;;;;;;13.18;76.41;98361.56;5051762;28;20726;-73
2023/01/20 05:15:05;;;;;;;3.77;1.83;;;;;;;13.23;76.26;98356.31;5053962;28;20195;-75
2023/01/20 05:17:32;;;;;;;9.83;2.53;;;;;;;13.26;76.33;98358.50;5053202;28;20611;-75
2023/01/20 05:19:58;;;;;;;6.77;2.30;;;;;;;13.25;76.06;98374.75;5052464;28;20196;-75
2023/01/20 05:22:25;;;;;;;10.77;4.70;;;;;;;13.09;77.20;98389.69;5053070;28;20220;-75
2023/01/20 05:24:52;;;;;;;8.27;3.03;;;;;;;12.92;77.73;98366.66;5053365;28;20294;-75
2023/01/20 05:27:18;;;;;;;9.27;2.80;;;;;;;12.80;78.22;98347.22;5053360;28;20195;-75
2023/01/20 05:29:46;;;;;;;4.00;2.80;;;;;;;12.84;78.34;98343.88;5046607;28;20265;-75
2023/01/20 05:32:13;;;;;;;7.13;3.03;;;;;;;12.71;78.99;98344.16;5053192;28;20572;-76
2023/01/20 05:34:40;;;;;;;11.13;3.03;;;;;;;12.80;78.44;98341.91;5053313;28;20203;-75
2023/01/20 05:37:06;;;;;;;8.17;3.00;;;;;;;12.83;78.47;98334.22;5051937;28;20314;-76
2023/01/20 05:39:33;;;;;;;9.43;2.70;;;;;;;12.90;78.25;98320.78;5033321;28;20197;-74
2023/01/20 05:42:00;;;;;;;2.93;2.40;;;;;;;12.88;78.28;98315.69;5033307;28;20196;-76
2023/01/20 05:44:27;;;;;;;3.70;3.30;;;;;;;12.91;77.58;98317.84;5033134;28;20286;-80
2023/01/20 05:46:55;;;;;;;12.40;3.33;;;;;;;12.85;78.28;98316.16;5033116;28;20266;-85
2023/01/20 05:49:22;;;;;;;16.33;3.47;;;;;;;12.76;78.78;98295.47;5050015;28;20260;-84
2023/01/20 05:51:48;;;;;;;4.47;3.50;;;;;;;12.70;81.30;98289.22;5052683;28;20250;-66
2023/01/20 05:54:15;;;;;;;7.13;5.90;;;;;;;12.84;82.94;98316.41;5052651;28;20230;-80
2023/01/20 05:56:42;;;;;;;26.33;6.83;;;;;;;12.84;79.74;98332.38;5051845;28;20191;-78
2023/01/20 05:59:08;;;;;;;12.70;5.33;;;;;;;12.62;80.52;98337.56;5037037;28;20642;-68
2023/01/20 06:01:35;;;;;;;15.77;5.37;;;;;;;12.90;86.94;98321.56;5039352;28;20203;-78
2023/01/20 06:04:03;;;;;;;7.90;5.87;;;;;;;12.97;81.90;98338.28;5052625;28;20220;-72
2023/01/20 06:06:30;;;;;;;15.50;6.20;;;;;;;13.25;90.36;98319.56;5040938;28;20200;-71
2023/01/20 06:08:57;;;;;;;18.20;6.70;;;;;;;13.09;80.43;98316.88;5033449;28;20647;-72
2023/01/20 06:11:24;;;;;;;13.43;6.70;;;;;;;12.98;79.84;98309.78;5032663;28;20259;-72
2023/01/20 06:13:50;;;;;;;17.87;7.60;;;;;;;12.88;79.11;98294.38;5043487;28;20262;-72
2023/01/20 06:16:18;;;;;;;35.17;7.87;;;;;;;12.96;80.51;98282.50;5051610;28;20231;-72
2023/01/20 06:18:45;;;;;;;31.53;5.90;;;;;;;13.12;79.81;98263.91;5051638;28;20253;-72
2023/01/20 06:21:13;;;;;;;31.13;6.80;;;;;;;13.27;79.11;98264.13;5050448;28;20683;-68
2023/01/20 06:23:40;;;;;;;22.33;6.30;;;;;;;13.37;78.49;98293.63;5051328;28;20293;-71
2023/01/20 06:26:08;;;;;;;25.40;6.87;;;;;;;13.29;77.75;98275.38;5051327;28;20257;-70
2023/01/20 06:28:35;;;;;;;11.67;4.33;;;;;;;13.29;77.97;98282.56;5051574;28;20253;-71
2023/01/20 06:31:04;;;;;;;23.47;5.80;;;;;;;13.39;78.62;98304.84;5049862;28;20208;-71
2023/01/20 06:33:31;;;;;;;20.03;6.17;;;;;;;13.46;77.34;98283.34;5051325;28;20196;-72
2023/01/20 06:35:58;;;;;;;14.77;6.30;;;;;;;13.38;77.22;98287.25;5051361;28;20247;-71
2023/01/20 06:38:29;;;;;;;37.53;6.40;;;;;;;13.30;78.24;98295.66;5051221;28;20200;-71
2023/01/20 06:40:59;;;;;;;21.63;6.43;;;;;;;13.44;78.62;98323.59;5051178;28;20557;-73
2023/01/20 06:43:27;;;;;;;31.40;6.50;;;;;;;13.48;78.50;98308.72;5050184;28;20789;-69
2023/01/20 06:45:58;;;;;;;19.63;6.03;;;;;;;13.52;77.95;98320.53;5045977;28;20193;-70
2023/01/20 06:48:25;;;;;;;17.00;5.37;;;;;;;13.61;77.30;98310.28;5031482;28;20193;-72
2023/01/20 06:50:52;;;;;;;17.90;7.60;;;;;;;13.64;77.42;98312.47;5037153;28;20200;-73
2023/01/20 06:53:19;;;;;;;27.73;6.63;;;;;;;13.86;76.91;98316.81;5051213;28;20250;-73
2023/01/20 06:55:55;;;;;;;19.87;6.60;;;;;;;13.77;76.06;98307.56;5051115;28;20232;-73
2023/01/20 06:58:23;;;;;;;27.73;6.40;;;;;;;13.45;77.60;98292.41;5051255;28;20190;-71
2023/01/20 07:00:50;;;;;;;13.43;5.13;;;;;;;13.57;76.01;98283.28;5050492;28;20334;-72
2023/01/20 07:03:16;;;;;;;9.87;4.70;;;;;;;13.54;75.78;98291.75;5051022;28;20851;-72
2023/01/20 07:05:43;;;;;;;10.63;5.70;;;;;;;13.57;75.46;98285.94;5050781;28;20554;-73
2023/01/20 07:08:10;;;;;;;12.43;6.47;;;;;;;13.69;76.75;98289.31;5050497;28;20220;-72
2023/01/20 07:10:37;;;;;;;26.93;8.00;;;;;;;13.92;76.44;98267.75;5051142;28;20415;-72
2023/01/20 07:13:05;;;;;;;49.27;10.97;;;;;;;14.12;75.62;98268.03;5051440;28;20208;-72
2023/01/20 07:15:32;;;;;;;56.33;9.83;;;;;;;14.22;74.72;98281.50;5050510;28;20215;-72
2023/01/20 07:17:58;;;;;;;34.13;6.90;;;;;;;14.09;73.73;98287.19;5051246;28;20254;-72
2023/01/20 07:20:25;;;;;;;24.90;8.03;;;;;;;14.16;74.50;98279.81;5051196;28;20197;-73
2023/01/20 07:22:52;;;;;;;17.07;6.20;;;;;;;14.13;74.99;98279.50;5051380;28;20226;-73
2023/01/20 07:25:18;;;;;;;16.33;6.33;;;;;;;13.92;74.71;98310.47;5052029;28;20703;-72
2023/01/20 07:27:45;;;;;;;9.27;5.30;;;;;;;13.70;75.70;98330.97;5050949;28;20571;-72
2023/01/20 07:30:13;;;;;;;14.03;5.80;;;;;;;13.34;77.31;98326.13;5051703;28;20223;-72
2023/01/20 07:32:40;;;;;;;20.53;5.40;;;;;;;13.23;79.37;98315.53;5050572;28;20266;-72
2023/01/20 07:35:22;;;;;;;15.67;5.37;;;;;;;13.17;79.30;98341.28;5039554;28;20192;-72
2023/01/20 07:37:48;;;;;;;5.73;4.97;;;;;;;12.86;80.27;98307.09;5051315;28;20239;-72
2023/01/20 07:40:15;;;;;;;4.73;4.10;;;;;;;12.89;80.86;98314.63;5051639;28;20255;-72
2023/01/20 07:42:42;;;;;;;7.17;4.07;;;;;;;12.92;80.68;98343.47;5053965;28;20726;-73
2023/01/20 07:45:09;;;;;;;8.03;4.40;;;;;;;12.79;81.70;98338.44;5054448;28;20677;-73
2023/01/20 07:47:37;;;;;;;5.00;3.80;;;;;;;12.71;82.21;98317.50;5055669;28;20195;-73
2023/01/20 07:50:04;;;;;;;10.90;5.50;;;;;;;12.89;82.24;98341.28;5055051;28;20685;-73
2023/01/20 07:52:31;;;;;;;12.53;4.23;;;;;;;12.91;82.30;98349.84;5055091;28;20265;-74
2023/01/20 07:54:58;;;;;;;7.13;5.03;;;;;;;12.97;81.84;98380.06;5053880;28;20757;-75
2023/01/20 07:57:24;;;;;;;9.47;3.93;;;;;;;12.80;82.71;98385.34;5051632;28;20265;-73
2023/01/20 07:59:51;;;;;;;18.60;5.97;;;;;;;12.78;83.78;98434.59;5055149;28;20250;-79
2023/01/20 08:02:18;;;;;;;12.60;5.90;;;;;;;12.48;86.02;98477.38;5054871;28;20290;-70
2023/01/20 08:04:46;;;;;;;5.50;4.30;;;;;;;12.15;87.62;98492.28;5053898;28;20706;-71
2023/01/20 08:07:13;;;;;;;6.30;3.40;;;;;;;11.73;91.50;98504.03;5054229;28;20278;-69
2023/01/20 08:09:40;;;;;;;6.90;4.80;;;;;;;11.55;94.36;98504.84;5054218;28;20620;-69
2023/01/20 08:12:07;;;;;;;9.50;4.37;;;;;;;11.33;97.43;98514.38;5048233;28;20198;-70
2023/01/20 08:14:34;;;;;;;7.43;4.23;;;;;;;11.13;100.00;98524.44;5055485;28;20201;-68
2023/01/20 08:17:01;;;;;;;6.90;3.80;;;;;;;11.08;100.00;98516.34;5052172;28;20197;-68
2023/01/20 08:19:28;;;;;;;6.57;3.10;;;;;;;10.79;100.00;98525.03;5048305;28;20280;-68
2023/01/20 08:21:56;;;;;;;5.50;2.97;;;;;;;10.91;100.00;98521.41;5054245;28;20250;-68
2023/01/20 08:24:23;;;;;;;4.77;3.33;;;;;;;10.95;100.00;98516.50;5054730;28;20685;-68
2023/01/20 08:26:50;;;;;;;3.13;2.93;;;;;;;10.96;100.00;98502.97;5054490;28;20560;-69
2023/01/20 08:29:17;;;;;;;10.10;4.67;;;;;;;11.08;100.00;98498.53;5048676;28;20232;-69
2023/01/20 08:31:44;;;;;;;3.60;2.70;;;;;;;11.22;100.00;98495.72;5034070;28;20197;-70
2023/01/20 08:34:11;;;;;;;9.17;4.37;;;;;;;11.34;100.00;98481.44;5043817;28;20676;-71
2023/01/20 08:36:40;;;;;;;11.27;5.83;;;;;;;11.49;100.00;98470.38;5053561;28;20723;-73
2023/01/20 08:39:10;;;;;;;8.40;5.40;;;;;;;11.69;100.00;98469.09;5051976;28;20191;-72
2023/01/20 08:41:39;;;;;;;5.87;4.97;;;;;;;11.80;99.79;98475.47;5053275;28;20194;-71
2023/01/20 08:44:07;;;;;;;3.90;3.10;;;;;;;11.94;99.20;98490.19;5047633;28;20642;-70
2023/01/20 08:46:36;;;;;;;6.83;2.83;;;;;;;12.08;98.72;98505.72;5048546;28;20191;-72
2023/01/20 08:49:06;;;;;;;6.23;3.80;;;;;;;12.15;98.34;98509.09;5053651;28;20194;-70
2023/01/20 08:51:33;;;;;;;5.40;3.10;;;;;;;12.25;98.13;98504.00;5053338;28;20195;-72
2023/01/20 08:54:00;;;;;;;5.63;2.83;;;;;;;12.38;98.05;98495.81;5058887;28;20204;-70
2023/01/20 08:56:29;;;;;;;5.47;4.27;;;;;;;12.41;97.63;98487.34;5061602;28;20248;-72
2023/01/20 08:58:57;;;;;;;39.60;20.23;;;;;;;12.38;97.40;98455.03;5052078;28;20202;-71
2023/01/20 09:01:26;;;;;;;36.50;17.77;;;;;;;12.44;97.40;98428.28;5053249;28;20222;-69
2023/01/20 09:03:54;;;;;;;20.40;12.47;;;;;;;12.48;96.86;98405.47;5052232;28;20226;-70
2023/01/20 09:06:21;;;;;;;9.57;6.27;;;;;;;12.65;95.69;98430.34;5044254;28;20192;-70
2023/01/20 09:08:48;;;;;;;7.23;6.50;;;;;;;12.79;95.96;98418.38;5041728;28;20203;-70
2023/01/20 09:11:18;;;;;;;10.03;6.23;;;;;;;12.96;93.87;98405.09;5052837;28;20248;-69
2023/01/20 09:13:47;;;;;;;24.93;11.53;;;;;;;13.12;92.69;98383.06;5052236;28;20249;-71
2023/01/20 09:16:15;;;;;;;12.30;8.50;;;;;;;13.26;92.02;98384.34;5034030;28;20198;-69
2023/01/20 09:18:43;;;;;;;5.00;4.47;;;;;;;13.35;90.95;98358.94;5041374;28;20201;-71
2023/01/20 09:21:10;;;;;;;1.93;1.83;;;;;;;13.28;79.72;98361.72;5051941;28;20282;-69
2023/01/20 09:23:39;;;;;;;1.60;1.53;;;;;;;13.26;76.64;98331.84;5053334;28;20704;-68
2023/01/20 09:26:07;;;;;;;1.73;1.63;;;;;;;13.27;75.86;98293.47;5050286;28;20247;-68
2023/01/20 09:28:34;;;;;;;1.43;1.40;;;;;;;13.48;74.17;98295.38;5053290;28;20193;-68
2023/01/20 09:31:04;;;;;;;3.97;2.07;;;;;;;13.62;73.77;98291.34;5040421;28;20258;-68
2023/01/20 09:33:31;;;;;;;1.90;1.60;;;;;;;13.96;74.31;98263.53;5033089;28;20194;-70
2023/01/20 09:35:59;;;;;;;2.93;1.90;;;;;;;13.98;73.03;98250.75;5037814;28;20246;-69
2023/01/20 09:44:11;;;;;;;3.43;1.90;;;;;;;15.03;69.64;98211.00;5049569;28;20288;-75
2023/01/20 09:47:18;;;;;;;2.23;1.10;;;;;;;15.49;66.12;98232.50;5047893;28;20561;-80
2023/01/20 09:55:26;;;;;;;3.70;1.53;;;;;;;16.05;65.53;98240.84;5044394;28;20200;-76
2023/01/20 09:58:01;;;;;;;1.57;1.47;;;;;;;16.32;64.12;98246.84;5048966;28;20262;-74
2023/01/20 10:00:31;;;;;;;2.57;1.30;;;;;;;16.54;62.52;98234.09;5049375;28;20184;-75
2023/01/20 10:03:07;;;;;;;1.20;1.20;;;;;;;16.37;61.17;98249.56;5049178;28;20243;-74
2023/01/20 10:05:38;;;;;;;2.00;1.30;;;;;;;16.54;60.21;98223.38;5047236;28;20208;-75
2023/01/20 10:08:10;;;;;;;1.77;1.67;;;;;;;16.59;59.59;98215.31;5052471;28;20242;-76
2023/01/20 10:10:42;;;;;;;1.43;1.37;;;;;;;16.41;59.15;98207.78;5051097;28;20184;-81
2023/01/20 10:13:17;;;;;;;1.00;0.90;;;;;;;16.38;58.72;98181.47;5043925;28;20298;-78
2023/01/20 10:15:47;;;;;;;0.93;0.93;;;;;;;16.27;57.54;98206.63;5052933;28;20678;-73
2023/01/20 10:18:19;;;;;;;1.10;1.00;;;;;;;16.16;59.00;98196.97;5049339;28;20246;-73
2023/01/20 10:20:50;;;;;;;1.97;1.20;;;;;;;15.84;57.98;98195.22;5051952;28;20243;-77
2023/01/20 10:23:22;;;;;;;1.43;1.33;;;;;;;15.75;60.31;98188.78;5051659;28;20733;-73
2023/01/20 10:25:53;;;;;;;2.43;1.50;;;;;;;15.96;62.09;98183.50;5039898;28;20695;-72
2023/01/20 10:28:27;;;;;;;2.33;1.80;;;;;;;15.83;64.59;98185.59;5048176;28;20290;-80
2023/01/20 10:30:57;;;;;;;3.23;2.47;;;;;;;16.18;65.22;98198.31;5039394;28;20623;-73
2023/01/20 10:33:30;;;;;;;2.23;2.00;;;;;;;16.32;65.11;98198.59;5038117;28;20197;-81
2023/01/20 10:35:59;;;;;;;7.20;3.53;;;;;;;16.32;68.75;98199.41;5045487;28;20196;-81
2023/01/20 10:38:34;;;;;;;5.43;2.93;;;;;;;16.25;71.54;98187.34;5050272;28;20237;-82
2023/01/20 10:41:06;;;;;;;1.80;1.67;;;;;;;15.96;70.31;98184.28;5051224;28;20239;-84
2023/01/20 10:43:33;;;;;;;3.20;2.23;;;;;;;15.88;72.00;98178.66;5050075;28;20185;-74
2023/01/20 10:46:15;;;;;;;9.00;1.93;;;;;;;15.90;70.78;98170.06;5051305;28;20764;-74
2023/01/20 10:48:57;;;;;;;1.37;1.27;;;;;;;16.00;69.21;98184.59;5051031;28;20244;-74
2023/01/20 10:51:32;;;;;;;2.07;1.07;;;;;;;15.98;65.37;98177.59;5052286;28;20201;-75
2023/01/20 10:54:07;;;;;;;2.03;1.07;;;;;;;16.02;63.53;98204.69;5051936;28;20563;-75
2023/01/20 10:56:38;;;;;;;3.50;1.00;;;;;;;16.09;64.14;98210.59;5051095;28;20725;-76
2023/01/20 10:59:12;;;;;;;1.00;1.00;;;;;;;16.08;63.87;98192.13;5052171;28;20184;-74
2023/01/20 11:01:40;;;;;;;3.23;1.50;;;;;;;16.06;64.99;98184.34;5052113;28;20208;-73
2023/01/20 11:04:16;;;;;;;1.73;1.33;;;;;;;16.14;64.19;98164.28;5051938;28;20220;-74
2023/01/20 11:06:44;;;;;;;4.00;0.90;;;;;;;16.16;64.53;98162.16;5051874;28;20197;-77
2023/01/20 11:09:22;;;;;;;1.53;1.23;;;;;;;16.10;65.40;98157.81;5051743;28;20197;-74
2023/01/20 11:11:49;;;;;;;1.27;1.10;;;;;;;15.98;65.82;98167.97;5051323;28;20215;-75
2023/01/20 11:14:15;;;;;;;1.60;1.00;;;;;;;15.70;67.76;98159.31;5051993;28;20202;-75
2023/01/20 11:16:45;;;;;;;1.50;0.80;;;;;;;15.46;69.00;98134.03;5057079;28;20197;-82
2023/01/20 11:19:13;;;;;;;2.87;0.90;;;;;;;15.57;67.68;98145.56;5056822;28;20187;-77
2023/01/20 11:21:40;;;;;;;7.50;1.13;;;;;;;15.58;68.39;98150.69;5069007;28;20255;-76
2023/01/20 11:24:32;;;;;;;2.33;1.30;;;;;;;15.28;69.84;98155.81;5073107;28;20345;-75
2023/01/20 11:27:04;;;;;;;2.30;1.17;;;;;;;15.16;70.54;98149.84;5073950;28;20180;-75
2023/01/20 11:29:34;;;;;;;3.27;1.50;;;;;;;15.08;71.85;98142.31;5057462;28;20196;-75
2023/01/20 11:32:01;;;;;;;2.07;1.20;;;;;;;15.08;73.93;98136.94;5055788;28;20238;-76
2023/01/20 11:34:31;;;;;;;2.10;1.87;;;;;;;14.93;72.68;98125.34;5054987;28;20204;-75
2023/01/20 11:37:17;;;;;;;4.40;1.70;;;;;;;14.78;71.12;98112.69;5054664;28;20192;-75
2023/01/20 11:39:56;;;;;;;4.30;1.20;;;;;;;14.80;69.45;98105.22;5055121;28;20644;-74
2023/01/20 11:42:25;;;;;;;1.60;1.10;;;;;;;14.84;68.08;98110.88;5055364;28;20246;-75
2023/01/20 11:44:53;;;;;;;1.30;1.20;;;;;;;14.68;68.14;98133.19;5055258;28;20220;-74
2023/01/20 11:47:26;;;;;;;3.40;1.10;;;;;;;14.58;68.55;98107.19;5055065;28;20200;-71
2023/01/20 11:50:29;;;;;;;2.37;1.53;;;;;;;14.60;70.19;98099.72;5057584;28;20196;-72
2023/01/20 11:53:13;;;;;;;1.33;1.20;;;;;;;14.39;70.35;98087.28;5012768;28;20197;-71
2023/01/20 11:55:46;;;;;;;2.13;1.63;;;;;;;14.32;71.40;98081.31;5058228;28;20623;-73